Monday, January 22, 2018, 8:49 AM EST
Back to Local

KBDL, Bradley International Airport

Location: Windsor Locks, CT, United States Lat: 41.933
Local Time: 8:49 AM EST (13:49 GMT) Lon: -72.683
Time Zone: US/Eastern Elev: 173 ft

Show me the last for .
Show Decoded

2018-01-22 07:59 METAR KBDL 221259Z 01003KT 4SM -RA BR OVC015 01/01 A3022 RMK AO2 P0000 T00110006
                 =
2018-01-22 07:51 METAR KBDL 221251Z 34003KT 6SM -RA BR OVC014 01/01 A3022 RMK AO2 RAE1155B09
                 SLP235 P0000 T00110006 =
2018-01-22 07:08 METAR KBDL 221208Z 36003KT 6SM BR OVC014 01/01 A3020 RMK AO2 RAE1155 P0000
                 T00110006 =
2018-01-22 06:51 METAR KBDL 221151Z 02003KT 8SM -RA OVC015 02/01 A3019 RMK AO2 RAE08B26 SLP223
                 PCPN VRY LGT P0000 60000 T00170006 10017 20011 53007 =
2018-01-22 05:51 METAR KBDL 221051Z 00000KT 8SM -RA OVC018 02/00 A3017 RMK AO2 RAB10E23B43 SLP218
                 P0000 T00170000 =
2018-01-22 04:51 METAR KBDL 220951Z 00000KT 8SM OVC021 01/00 A3017 RMK AO2 RAE20 SLP217 P0000
                 T00110000 =
2018-01-22 03:51 METAR KBDL 220851Z 01003KT 8SM -RA OVC021 01/00 A3016 RMK AO2 RAB27 SLP215 P0000
                 60000 T00110000 56003 =
2018-01-22 02:51 METAR KBDL 220751Z 00000KT 10SM BKN024 OVC031 01/01 A3017 RMK AO2 SLP217
                 T00110006 =
2018-01-22 01:51 METAR KBDL 220651Z 00000KT 10SM OVC025 02/00 A3017 RMK AO2 RAE39 SLP216 P0000
                 T00170000 =
2018-01-22 01:12 METAR KBDL 220612Z 00000KT 10SM -RA BKN028 OVC036 02/M01 A3017 RMK AO2 P0000
                 T00171006 =
2018-01-22 00:51 METAR KBDL 220551Z 00000KT 10SM -RA OVC033 02/M01 A3017 RMK AO2 RAB01E21B43
                 SLP218 P0000 60000 T00171006 10039 21006 58003 =
2018-01-21 23:51 METAR KBDL 220451Z 00000KT 10SM OVC039 02/M01 A3018 RMK AO2 RAB32E41 SLP219
                 P0000 T00171011 401001044 =
2018-01-21 22:51 METAR KBDL 220351Z 27003KT 10SM OVC050 01/M01 A3018 RMK AO2 SLP223 T00111011 =
2018-01-21 21:51 METAR KBDL 220251Z 00000KT 10SM BKN060 OVC200 01/M01 A3018 RMK AO2 SLP223
                 T00111011 53006 =
2018-01-21 20:51 METAR KBDL 220151Z 06003KT 10SM BKN060 OVC200 02/M02 A3017 RMK AO2 SLP220
                 T00171017 =
2018-01-21 19:51 METAR KBDL 220051Z 00000KT 10SM FEW200 SCT220 01/M02 A3017 RMK AO2 SLP219
                 T00061022 =
2018-01-21 18:51 METAR KBDL 212351Z 01004KT 10SM SCT200 SCT220 04/M02 A3017 RMK AO2 SLP217
                 T00391017 10100 20033 53014 =
2018-01-21 17:51 METAR KBDL 212251Z 03004KT 10SM FEW250 04/M02 A3015 RMK AO2 SLP211 T00441017 =
2018-01-21 16:51 METAR KBDL 212151Z 00000KT 10SM FEW160 FEW200 SCT250 07/M02 A3013 RMK AO2 SLP205
                 T00671017 =
2018-01-21 15:51 METAR KBDL 212051Z 24004KT 10SM FEW160 FEW200 BKN250 09/M01 A3013 RMK AO2 SLP203
                 T00891006 53001 =
2018-01-21 14:51 METAR KBDL 211951Z 00000KT 10SM FEW160 BKN250 09/M01 A3012 RMK AO2 SLP200
                 T00891011 =
2018-01-21 13:51 METAR KBDL 211851Z 00000KT 10SM FEW038 BKN250 09/M01 A3011 RMK AO2 SLP199
                 T00891011 =
2018-01-21 12:51 METAR KBDL 211751Z 12003KT 10SM FEW038 FEW150 BKN250 08/M01 A3012 RMK AO2 SLP202
                 T00831006 10089 21044 58015 =
2018-01-21 11:51 METAR KBDL 211651Z 06004KT 10SM FEW036 FEW150 SCT250 08/M01 A3015 RMK AO2 SLP210
                 T00781006 =
2018-01-21 10:51 METAR KBDL 211551Z VRB03KT 10SM FEW160 SCT250 07/00 A3017 RMK AO2 SLP217
                 T00720000 =
2018-01-21 09:51 METAR KBDL 211451Z 24005KT 10SM FEW160 BKN250 05/M01 A3017 RMK AO2 SLP217
                 T00501006 51024 =
2018-01-21 08:51 METAR KBDL 211351Z 28003KT 10SM FEW100 FEW160 BKN250 01/M02 A3016 RMK AO2 SLP215
                 T00111017 =

Support USWX by starting your Amazon purchase here.